Time;durP1;ratioP1;P1;durP2;ratioP2;P2;SDS_P1;SDS_P2;PMS_P1;PMS_P2;Temp;Humidity;BMP_temperature;BMP_pressure;BME280_temperature;BME280_humidity;BME280_pressure;Samples;Min_cycle;Max_cycle;Signal;HPM_P1;HPM_P2
2022/03/14 00:02:24;;;;;;;7.53;5.87;;;9.30;61.90;;;;;;5075585;28;20474;-82
2022/03/14 00:04:51;;;;;;;8.10;6.30;;;9.30;62.70;;;;;;5075569;28;20976;-82
2022/03/14 00:07:18;;;;;;;13.60;10.17;;;9.30;62.40;;;;;;5075394;28;20446;-82
2022/03/14 00:09:45;;;;;;;9.50;7.03;;;9.20;63.10;;;;;;5075251;28;20450;-82
2022/03/14 00:12:17;;;;;;;6.43;5.63;;;9.20;62.50;;;;;;5075311;28;20470;-82
2022/03/14 00:14:43;;;;;;;7.67;4.97;;;9.30;62.40;;;;;;5075118;28;20485;-82
2022/03/14 00:17:11;;;;;;;7.90;5.90;;;9.20;61.90;;;;;;5075140;28;20445;-82
2022/03/14 00:19:40;;;;;;;10.03;5.37;;;9.30;61.40;;;;;;5075104;28;20868;-80
2022/03/14 00:22:10;;;;;;;6.80;5.17;;;9.30;61.40;;;;;;5075016;28;20466;-82
2022/03/14 00:24:36;;;;;;;10.00;5.57;;;9.20;61.90;;;;;;5075201;28;20454;-82
2022/03/14 00:27:03;;;;;;;7.63;5.60;;;9.30;61.60;;;;;;5074759;28;20450;-81
2022/03/14 00:29:30;;;;;;;6.60;4.23;;;9.30;61.40;;;;;;5074763;28;20450;-82
2022/03/14 00:31:58;;;;;;;7.00;4.87;;;9.40;61.40;;;;;;5099510;22;20863;-82
2022/03/14 00:34:24;;;;;;;7.90;5.90;;;9.40;61.40;;;;;;5076750;28;20474;-81
2022/03/14 00:36:52;;;;;;;8.03;6.50;;;9.30;63.80;;;;;;5076425;28;20458;-82
2022/03/14 00:39:19;;;;;;;9.67;8.77;;;9.20;64.60;;;;;;5076431;28;20834;-81
2022/03/14 00:41:46;;;;;;;9.53;8.60;;;9.20;66.10;;;;;;5088070;28;20485;-81
2022/03/14 00:44:15;;;;;;;8.80;7.80;;;9.00;65.60;;;;;;5096566;28;20446;-82
2022/03/14 00:46:42;;;;;;;8.60;7.80;;;9.00;66.30;;;;;;5096102;28;20453;-81
2022/03/14 00:49:09;;;;;;;9.00;8.10;;;9.00;66.30;;;;;;5096143;28;20457;-81
2022/03/14 00:51:36;;;;;;;9.03;8.23;;;9.00;67.10;;;;;;5096346;28;20480;-82
2022/03/14 00:54:04;;;;;;;11.73;8.07;;;9.00;67.10;;;;;;5096950;28;20979;-81
2022/03/14 00:56:32;;;;;;;10.07;9.10;;;9.10;67.70;;;;;;5096651;28;20469;-82
2022/03/14 00:58:59;;;;;;;11.70;10.70;;;9.10;68.20;;;;;;5096284;28;20540;-82
2022/03/14 01:01:26;;;;;;;12.63;11.67;;;9.10;69.30;;;;;;5096231;28;20473;-81
2022/03/14 01:03:54;;;;;;;17.87;16.77;;;9.10;69.30;;;;;;5096819;28;20460;-81
2022/03/14 01:06:21;;;;;;;15.83;14.73;;;9.10;71.00;;;;;;5097038;28;20541;-82
2022/03/14 01:08:48;;;;;;;17.43;16.23;;;9.10;71.40;;;;;;5096866;28;20465;-81
2022/03/14 01:11:16;;;;;;;24.53;22.83;;;9.00;71.30;;;;;;5097218;28;20473;-82
2022/03/14 01:13:44;;;;;;;43.00;40.80;;;9.10;72.80;;;;;;5096586;28;20468;-81
2022/03/14 01:16:11;;;;;;;44.13;41.53;;;9.10;75.00;;;;;;5097561;28;20526;-82
2022/03/14 01:18:38;;;;;;;59.80;57.00;;;9.20;77.20;;;;;;5096836;28;20461;-81
2022/03/14 01:21:04;;;;;;;61.30;58.40;;;9.20;77.90;;;;;;5096463;28;20469;-81
2022/03/14 01:23:31;;;;;;;72.50;69.20;;;9.10;80.20;;;;;;5096971;28;20457;-81
2022/03/14 01:25:58;;;;;;;91.70;87.97;;;9.20;82.10;;;;;;5095946;28;20458;-81
2022/03/14 01:28:26;;;;;;;103.27;99.03;;;9.10;84.10;;;;;;5097477;28;20456;-81
2022/03/14 01:30:53;;;;;;;129.33;124.00;;;9.10;86.30;;;;;;5097948;28;20474;-81
2022/03/14 01:33:19;;;;;;;168.33;161.43;;;9.00;89.00;;;;;;5098765;28;20453;-81
2022/03/14 01:35:46;;;;;;;188.10;180.37;;;9.00;91.40;;;;;;5097610;28;20481;-80
2022/03/14 01:38:13;;;;;;;222.13;213.33;;;9.00;92.00;;;;;;5097386;28;20450;-81
2022/03/14 01:40:40;;;;;;;258.10;247.30;;;8.90;93.20;;;;;;5098647;28;20445;-82
2022/03/14 01:43:06;;;;;;;327.07;313.87;;;8.90;94.50;;;;;;5098880;28;20450;-81
2022/03/14 01:45:35;;;;;;;406.80;390.07;;;8.90;96.80;;;;;;5099364;28;20449;-81
2022/03/14 01:48:02;;;;;;;456.07;436.57;;;8.80;98.30;;;;;;5099331;28;20495;-81
2022/03/14 01:50:28;;;;;;;598.73;571.50;;;8.90;99.90;;;;;;5099295;28;20454;-81
2022/03/14 01:52:55;;;;;;;575.27;547.90;;;8.80;99.90;;;;;;5099176;28;20450;-81
2022/03/14 01:55:22;;;;;;;658.60;624.90;;;8.90;99.90;;;;;;5097852;28;20473;-80
2022/03/14 01:57:49;;;;;;;723.73;683.70;;;8.80;99.90;;;;;;5095608;28;20449;-81
2022/03/14 02:00:16;;;;;;;763.70;718.60;;;8.80;99.90;;;;;;5096042;28;20454;-80
2022/03/14 02:02:44;;;;;;;788.30;740.63;;;8.80;99.90;;;;;;5095704;28;20515;-80
2022/03/14 02:05:12;;;;;;;814.70;764.50;;;8.70;99.90;;;;;;5095551;28;20453;-81
2022/03/14 02:07:39;;;;;;;840.90;787.00;;;8.70;99.90;;;;;;5094924;28;20445;-80
2022/03/14 02:10:07;;;;;;;830.97;777.87;;;8.70;99.90;;;;;;5094190;28;20446;-80
2022/03/14 02:12:33;;;;;;;833.40;777.60;;;8.70;99.90;;;;;;5093848;28;20472;-81
2022/03/14 02:15:00;;;;;;;824.30;768.90;;;8.60;99.90;;;;;;5095193;28;20478;-80
2022/03/14 02:17:27;;;;;;;830.60;771.60;;;8.60;99.90;;;;;;5094634;28;20453;-80
2022/03/14 02:19:59;;;;;;;826.40;767.17;;;8.60;99.90;;;;;;5094797;28;20453;-80
2022/03/14 02:22:26;;;;;;;826.03;764.07;;;8.60;99.90;;;;;;5094587;28;20485;-80
2022/03/14 02:24:52;;;;;;;818.93;755.33;;;8.50;99.90;;;;;;5095537;28;20464;-80
2022/03/14 02:27:19;;;;;;;843.90;776.63;;;8.40;99.90;;;;;;5094312;28;20934;-81
2022/03/14 02:29:46;;;;;;;830.57;762.47;;;8.50;99.90;;;;;;5095403;28;20449;-80
2022/03/14 02:32:13;;;;;;;835.07;764.03;;;8.50;99.90;;;;;;5096076;28;20860;-81
2022/03/14 02:34:41;;;;;;;916.30;845.97;;;8.50;99.90;;;;;;5097051;28;20441;-81
2022/03/14 02:37:10;;;;;;;919.10;847.60;;;8.50;99.90;;;;;;5097370;28;20980;-81
2022/03/14 02:39:38;;;;;;;932.07;860.57;;;8.40;99.90;;;;;;5097503;28;20449;-81
2022/03/14 02:42:05;;;;;;;886.93;816.93;;;8.50;99.90;;;;;;5096944;28;20470;-81
2022/03/14 02:44:34;;;;;;;858.57;790.60;;;8.50;99.90;;;;;;5097745;28;20456;-80
2022/03/14 02:47:01;;;;;;;886.03;815.93;;;8.50;99.90;;;;;;5095859;28;20449;-80
2022/03/14 02:49:27;;;;;;;900.90;827.07;;;8.50;99.90;;;;;;5095176;28;20453;-82
2022/03/14 02:51:54;;;;;;;917.67;841.07;;;8.50;99.90;;;;;;5095057;28;20465;-80
2022/03/14 02:54:22;;;;;;;931.33;854.77;;;8.50;99.90;;;;;;5095843;28;20450;-80
2022/03/14 02:56:49;;;;;;;933.27;855.20;;;8.50;99.90;;;;;;5095866;28;20465;-80
2022/03/14 02:59:16;;;;;;;936.33;858.53;;;8.40;99.90;;;;;;5096501;28;20450;-80
2022/03/14 03:01:42;;;;;;;954.03;874.27;;;8.40;99.90;;;;;;5095976;28;20560;-80
2022/03/14 03:04:10;;;;;;;942.47;862.80;;;8.40;99.90;;;;;;5097282;28;20972;-80
2022/03/14 03:06:36;;;;;;;917.50;840.80;;;8.40;99.90;;;;;;5097607;28;20449;-81
2022/03/14 03:09:04;;;;;;;850.27;782.30;;;8.40;99.90;;;;;;5096922;28;20453;-80
2022/03/14 03:11:33;;;;;;;873.70;802.50;;;8.50;99.90;;;;;;5095969;28;20465;-80
2022/03/14 03:14:01;;;;;;;865.47;793.97;;;8.40;99.90;;;;;;5096503;28;20449;-80
2022/03/14 03:16:28;;;;;;;820.40;751.33;;;8.40;99.90;;;;;;5095652;28;20465;-81
2022/03/14 03:18:55;;;;;;;910.23;834.87;;;8.50;99.90;;;;;;5095925;28;20450;-81
2022/03/14 03:21:22;;;;;;;848.93;777.83;;;8.40;99.90;;;;;;5094660;28;20560;-80
2022/03/14 03:23:49;;;;;;;854.40;781.10;;;8.50;99.90;;;;;;5095524;28;20460;-80
2022/03/14 03:26:16;;;;;;;846.10;774.03;;;8.50;99.90;;;;;;5095124;28;20448;-82
2022/03/14 03:28:44;;;;;;;858.47;781.77;;;8.40;99.90;;;;;;5096309;28;20446;-81
2022/03/14 03:31:13;;;;;;;878.57;800.00;;;8.40;99.90;;;;;;5094441;28;20481;-80
2022/03/14 03:33:40;;;;;;;875.10;796.23;;;8.40;99.90;;;;;;5096108;28;20484;-80
2022/03/14 03:36:08;;;;;;;891.37;810.20;;;8.40;99.90;;;;;;5095180;28;20472;-81
2022/03/14 03:38:35;;;;;;;880.27;799.73;;;8.40;99.90;;;;;;5094665;28;20977;-80
2022/03/14 03:41:03;;;;;;;885.50;803.80;;;8.40;99.90;;;;;;5094550;28;20476;-83
2022/03/14 03:43:30;;;;;;;882.67;801.83;;;8.50;99.90;;;;;;5096376;28;20450;-80
2022/03/14 03:45:58;;;;;;;899.17;818.50;;;8.40;99.90;;;;;;5096006;28;20450;-81
2022/03/14 03:48:25;;;;;;;896.27;814.73;;;8.40;99.90;;;;;;5095143;28;20877;-81
2022/03/14 03:50:52;;;;;;;912.67;831.10;;;8.40;99.90;;;;;;5095194;28;20474;-80
2022/03/14 03:53:19;;;;;;;908.90;826.70;;;8.40;99.90;;;;;;5095672;28;20460;-80
2022/03/14 03:55:45;;;;;;;899.40;819.40;;;8.40;99.90;;;;;;5094146;28;20476;-80
2022/03/14 03:58:12;;;;;;;861.80;782.80;;;8.40;99.90;;;;;;5093958;28;20457;-80
2022/03/14 04:00:39;;;;;;;898.07;820.20;;;8.40;99.90;;;;;;5094162;28;20973;-81
2022/03/14 04:03:08;;;;;;;921.07;839.63;;;8.40;99.90;;;;;;5094572;28;21024;-80
2022/03/14 04:05:39;;;;;;;912.37;832.27;;;8.40;99.90;;;;;;5095221;28;21023;-80
2022/03/14 04:08:11;;;;;;;928.30;847.50;;;8.40;99.90;;;;;;5093799;28;20489;-80
2022/03/14 04:10:38;;;;;;;898.23;823.83;;;8.40;99.90;;;;;;5093755;28;20453;-81
2022/03/14 04:13:06;;;;;;;894.87;819.50;;;8.40;99.90;;;;;;5074630;28;20454;-80
2022/03/14 04:15:37;;;;;;;896.67;817.37;;;8.40;99.90;;;;;;5087483;28;20457;-80
2022/03/14 04:18:04;;;;;;;877.43;802.43;;;8.40;99.90;;;;;;5096449;28;20462;-83
2022/03/14 04:20:32;;;;;;;875.53;804.60;;;8.40;99.90;;;;;;5095087;28;20460;-80
2022/03/14 04:22:59;;;;;;;847.40;777.23;;;8.40;99.90;;;;;;5095716;28;21096;-80
2022/03/14 04:25:26;;;;;;;822.87;756.33;;;8.40;99.90;;;;;;5096530;28;20453;-81
2022/03/14 04:27:52;;;;;;;799.43;736.37;;;8.30;99.90;;;;;;5097874;28;20446;-81
2022/03/14 04:30:19;;;;;;;826.07;759.80;;;8.40;99.90;;;;;;5099703;28;20826;-81
2022/03/14 04:32:46;;;;;;;816.63;750.83;;;8.30;99.90;;;;;;5087842;28;20480;-80
2022/03/14 04:35:13;;;;;;;811.97;747.07;;;8.40;99.90;;;;;;5077237;28;20861;-80
2022/03/14 04:37:41;;;;;;;824.87;760.17;;;8.30;99.90;;;;;;5087442;28;20465;-81
2022/03/14 04:40:09;;;;;;;782.83;723.03;;;8.30;99.90;;;;;;5086852;28;20450;-81
2022/03/14 04:42:37;;;;;;;830.97;765.67;;;8.30;99.90;;;;;;5098139;28;20610;-80
2022/03/14 04:45:04;;;;;;;835.10;766.30;;;8.30;99.90;;;;;;5097376;28;20837;-81
2022/03/14 04:47:31;;;;;;;822.33;754.03;;;8.30;99.90;;;;;;5096691;28;20441;-79
2022/03/14 04:49:58;;;;;;;854.67;784.63;;;8.20;99.90;;;;;;5082137;28;20491;-81
2022/03/14 04:52:25;;;;;;;850.57;780.60;;;8.20;99.90;;;;;;5089855;28;20469;-80
2022/03/14 04:54:53;;;;;;;830.93;762.10;;;8.20;99.90;;;;;;5095734;28;20446;-80
2022/03/14 04:57:20;;;;;;;834.53;765.13;;;8.10;99.90;;;;;;5094712;28;20476;-80
2022/03/14 04:59:46;;;;;;;829.07;760.20;;;8.10;99.90;;;;;;5080197;28;20443;-82
2022/03/14 05:02:13;;;;;;;822.93;753.97;;;8.10;99.90;;;;;;5087441;28;20492;-80
2022/03/14 05:04:40;;;;;;;824.07;754.47;;;8.10;99.90;;;;;;5091918;28;20449;-81
2022/03/14 05:07:08;;;;;;;830.83;763.27;;;8.00;99.90;;;;;;5086474;28;20442;-81
2022/03/14 05:09:35;;;;;;;862.50;791.50;;;8.10;99.90;;;;;;5092350;28;20954;-80
2022/03/14 05:12:03;;;;;;;829.57;757.27;;;8.00;99.90;;;;;;5092837;28;20469;-81
2022/03/14 05:14:31;;;;;;;842.83;771.17;;;8.00;99.90;;;;;;5088487;28;20447;-80
2022/03/14 05:16:57;;;;;;;831.03;757.40;;;8.00;99.90;;;;;;5076174;28;20524;-81
2022/03/14 05:19:24;;;;;;;823.97;750.03;;;7.90;99.90;;;;;;5088828;28;20456;-80
2022/03/14 05:21:51;;;;;;;827.17;754.33;;;8.00;99.90;;;;;;5095226;28;20469;-81
2022/03/14 05:24:18;;;;;;;823.40;752.30;;;8.00;99.90;;;;;;5093316;28;20453;-80
2022/03/14 05:26:46;;;;;;;796.67;729.77;;;7.90;99.90;;;;;;5092787;28;20446;-80
2022/03/14 05:29:15;;;;;;;816.57;746.70;;;8.00;99.90;;;;;;5092617;28;20482;-80
2022/03/14 05:31:42;;;;;;;784.70;716.50;;;8.00;99.90;;;;;;5092343;28;20480;-81
2022/03/14 05:34:09;;;;;;;800.43;732.73;;;8.00;99.90;;;;;;5094502;28;20834;-80
2022/03/14 05:36:37;;;;;;;816.23;746.23;;;7.90;99.90;;;;;;5076630;28;20470;-80
2022/03/14 05:39:04;;;;;;;826.30;759.13;;;7.90;99.90;;;;;;5073359;28;20454;-80
2022/03/14 05:41:31;;;;;;;782.93;716.83;;;7.90;99.90;;;;;;5092315;28;20477;-81
2022/03/14 05:43:57;;;;;;;774.97;713.23;;;8.00;99.90;;;;;;5094839;28;20446;-81
2022/03/14 05:46:25;;;;;;;786.37;722.30;;;7.90;99.90;;;;;;5093433;28;21858;-80
2022/03/14 05:48:52;;;;;;;780.73;717.03;;;8.00;99.90;;;;;;5094411;28;20824;-81
2022/03/14 05:51:19;;;;;;;818.90;754.63;;;7.90;99.90;;;;;;5094334;28;20469;-82
2022/03/14 05:53:46;;;;;;;785.97;722.37;;;8.00;99.90;;;;;;5095844;28;20453;-82
2022/03/14 05:56:13;;;;;;;781.20;718.90;;;8.00;99.90;;;;;;5097140;28;20499;-81
2022/03/14 05:58:39;;;;;;;779.97;716.93;;;8.00;99.90;;;;;;5095267;28;20454;-81
2022/03/14 06:01:06;;;;;;;766.03;704.33;;;8.00;99.90;;;;;;5094392;28;21008;-83
2022/03/14 06:03:50;;;;;;;771.17;707.87;;;8.00;99.90;;;;;;5092325;28;20488;-86
2022/03/14 06:06:16;;;;;;;758.80;698.20;;;8.00;99.90;;;;;;5094706;28;20449;-81
2022/03/14 06:08:43;;;;;;;751.40;691.20;;;7.90;99.90;;;;;;5093349;28;20473;-82
2022/03/14 06:11:10;;;;;;;737.03;678.97;;;8.00;99.90;;;;;;5093282;28;20472;-83
2022/03/14 06:13:37;;;;;;;721.97;664.37;;;8.10;99.90;;;;;;5092056;28;20476;-82
2022/03/14 06:16:05;;;;;;;708.43;653.53;;;8.00;99.90;;;;;;5094859;28;20450;-81
2022/03/14 06:18:32;;;;;;;717.73;664.27;;;8.10;99.90;;;;;;5089530;28;20482;-81
2022/03/14 06:21:00;;;;;;;700.40;648.60;;;8.10;99.90;;;;;;5096272;28;20465;-82
2022/03/14 06:23:27;;;;;;;702.73;651.43;;;8.20;99.90;;;;;;5095405;28;20485;-84
2022/03/14 06:25:54;;;;;;;702.33;651.80;;;8.10;99.90;;;;;;5094924;28;20481;-81
2022/03/14 06:28:22;;;;;;;696.77;647.87;;;8.20;99.90;;;;;;5090184;28;20456;-82
2022/03/14 06:33:28;;;;;;;698.10;650.37;;;8.20;99.90;;;;;;5070130;28;20450;-83
2022/03/14 06:35:54;;;;;;;700.70;653.87;;;8.20;99.90;;;;;;5071227;28;20798;-82
2022/03/14 06:38:22;;;;;;;698.87;652.27;;;8.30;99.90;;;;;;5070529;28;20474;-83
2022/03/14 06:40:50;;;;;;;702.87;653.17;;;8.20;99.90;;;;;;5074669;28;20462;-83
2022/03/14 06:43:17;;;;;;;701.53;654.07;;;8.30;99.90;;;;;;5059436;28;20522;-83
2022/03/14 06:45:45;;;;;;;693.37;648.77;;;8.30;99.90;;;;;;5060003;28;20459;-83
2022/03/14 06:48:12;;;;;;;695.53;648.80;;;8.30;99.90;;;;;;5058315;28;20470;-82
2022/03/14 06:50:39;;;;;;;691.83;645.33;;;8.30;99.90;;;;;;5052050;28;20454;-82
2022/03/14 06:53:05;;;;;;;698.37;651.20;;;8.30;99.90;;;;;;5052577;28;20478;-82
2022/03/14 06:55:34;;;;;;;695.77;651.73;;;8.30;99.90;;;;;;5058797;28;20454;-82
2022/03/14 06:58:00;;;;;;;707.43;662.40;;;8.40;99.90;;;;;;5068912;28;20474;-83
2022/03/14 07:00:27;;;;;;;683.73;641.60;;;8.40;99.90;;;;;;5060086;28;20455;-81
2022/03/14 07:02:54;;;;;;;669.13;631.57;;;8.40;99.90;;;;;;5054991;28;20468;-82
2022/03/14 07:05:24;;;;;;;679.80;640.90;;;8.50;99.90;;;;;;5038393;28;20455;-81
2022/03/14 07:07:51;;;;;;;671.93;634.23;;;8.50;99.90;;;;;;5051984;28;20963;-82
2022/03/14 07:10:18;;;;;;;666.03;628.03;;;8.50;99.90;;;;;;5064451;28;20462;-82
2022/03/14 07:12:48;;;;;;;618.77;587.53;;;8.60;99.90;;;;;;5068117;28;20481;-83
2022/03/14 07:15:17;;;;;;;646.63;613.70;;;8.60;99.90;;;;;;5063127;28;20455;-82
2022/03/14 07:17:44;;;;;;;589.77;562.37;;;8.60;99.90;;;;;;5053938;28;20482;-82
2022/03/14 07:20:11;;;;;;;636.60;604.60;;;8.60;99.90;;;;;;5065083;28;20528;-82
2022/03/14 07:22:53;;;;;;;638.87;606.33;;;8.60;99.90;;;;;;5060447;28;20470;-83
2022/03/14 07:25:24;;;;;;;625.00;593.33;;;8.60;99.90;;;;;;5067004;28;20832;-82
2022/03/14 07:27:54;;;;;;;659.23;622.83;;;8.70;99.90;;;;;;5060267;28;20444;-82
2022/03/14 07:30:21;;;;;;;594.17;565.93;;;8.70;99.90;;;;;;5059065;28;20483;-82
2022/03/14 07:32:48;;;;;;;568.47;541.20;;;8.70;99.90;;;;;;5055718;28;20556;-83
2022/03/14 07:35:15;;;;;;;594.20;566.33;;;8.80;99.90;;;;;;5060226;28;20455;-82
2022/03/14 07:37:44;;;;;;;635.87;602.60;;;8.80;99.90;;;;;;5071172;28;20473;-83
2022/03/14 07:40:12;;;;;;;628.50;595.73;;;8.90;99.90;;;;;;5071951;28;20450;-83
2022/03/14 07:42:43;;;;;;;622.63;590.73;;;8.90;99.90;;;;;;5066547;28;20467;-80
2022/03/14 07:45:12;;;;;;;613.23;581.67;;;9.00;99.90;;;;;;5049948;28;20478;-83
2022/03/14 07:47:40;;;;;;;601.93;572.70;;;9.10;99.90;;;;;;5059206;28;20443;-83
2022/03/14 07:50:08;;;;;;;583.27;556.17;;;9.20;99.90;;;;;;5061463;28;20451;-85
2022/03/14 07:52:36;;;;;;;564.30;539.10;;;9.20;99.90;;;;;;5043659;28;20837;-83
2022/03/14 07:55:03;;;;;;;455.90;438.67;;;9.30;99.90;;;;;;5065746;28;20465;-83
2022/03/14 07:57:31;;;;;;;433.60;417.00;;;9.40;99.90;;;;;;5079707;28;20543;-83
2022/03/14 07:59:58;;;;;;;357.80;345.50;;;9.40;99.90;;;;;;5076162;28;20450;-82
2022/03/14 08:02:27;;;;;;;369.60;355.73;;;9.60;99.90;;;;;;5078970;28;20474;-82
2022/03/14 08:04:53;;;;;;;329.57;318.27;;;9.50;99.90;;;;;;5061136;28;20456;-83
2022/03/14 08:07:20;;;;;;;384.50;370.93;;;9.60;99.90;;;;;;5067105;28;20451;-82
2022/03/14 08:09:48;;;;;;;350.87;338.57;;;9.60;99.90;;;;;;5072237;28;20477;-83
2022/03/14 08:12:15;;;;;;;337.53;325.77;;;9.80;99.90;;;;;;5078078;28;20892;-83
2022/03/14 08:14:41;;;;;;;259.93;251.33;;;9.90;99.90;;;;;;5075170;28;20454;-83
2022/03/14 08:17:08;;;;;;;234.47;226.50;;;9.90;99.90;;;;;;5067562;28;20548;-82
2022/03/14 08:19:37;;;;;;;188.50;182.00;;;10.10;99.90;;;;;;5056382;28;20505;-82
2022/03/14 08:22:04;;;;;;;147.03;141.43;;;10.20;99.90;;;;;;5059246;28;20478;-83
2022/03/14 08:24:32;;;;;;;58.57;55.47;;;10.30;99.90;;;;;;5058809;28;20814;-81
2022/03/14 08:26:58;;;;;;;87.90;84.10;;;10.40;99.90;;;;;;5057978;28;20451;-82
2022/03/14 08:29:25;;;;;;;38.90;36.57;;;10.60;99.90;;;;;;5058059;28;20462;-82
2022/03/14 08:31:52;;;;;;;28.60;27.20;;;10.70;98.60;;;;;;5059493;28;20486;-82
2022/03/14 08:34:19;;;;;;;40.53;38.10;;;10.90;98.60;;;;;;5058370;28;20530;-81
2022/03/14 08:36:47;;;;;;;12.30;10.07;;;11.00;96.30;;;;;;5057512;28;20460;-85
2022/03/14 08:39:14;;;;;;;35.95;34.03;;;10.90;95.70;;;;;;5058219;28;20467;-82
2022/03/14 08:41:41;;;;;;;9.23;8.23;;;11.10;95.30;;;;;;5057747;28;20224;-82
2022/03/14 08:44:08;;;;;;;6.40;5.20;;;11.10;95.10;;;;;;5056983;28;20452;-82
2022/03/14 08:46:35;;;;;;;7.57;5.43;;;10.90;93.00;;;;;;5055556;28;20455;-82
2022/03/14 08:49:02;;;;;;;11.13;6.23;;;10.90;93.30;;;;;;5055837;28;20456;-80
2022/03/14 08:51:29;;;;;;;10.10;5.90;;;10.80;92.90;;;;;;5055467;28;20475;-82
2022/03/14 08:53:57;;;;;;;12.77;7.77;;;10.70;92.40;;;;;;5055585;28;20455;-82
2022/03/14 08:56:24;;;;;;;10.40;5.73;;;10.70;93.80;;;;;;5055244;28;20455;-82
2022/03/14 08:58:51;;;;;;;12.77;6.27;;;10.80;93.80;;;;;;5054984;28;20475;-81
2022/03/14 09:01:17;;;;;;;9.37;6.90;;;10.70;93.60;;;;;;5054848;28;20480;-81
2022/03/14 09:03:44;;;;;;;12.33;5.57;;;10.90;93.80;;;;;;5057778;28;20451;-83
2022/03/14 09:06:11;;;;;;;10.40;5.07;;;11.10;92.10;;;;;;5055373;28;20466;-84
2022/03/14 09:08:39;;;;;;;13.97;5.37;;;11.30;91.50;;;;;;5054544;28;20447;-82
2022/03/14 09:11:07;;;;;;;9.33;5.40;;;11.40;90.60;;;;;;5054423;28;20459;-84
2022/03/14 09:13:34;;;;;;;10.50;5.77;;;11.40;90.60;;;;;;5055254;28;20451;-83
2022/03/14 09:16:00;;;;;;;13.70;5.47;;;11.60;88.00;;;;;;5055184;28;20451;-82
2022/03/14 09:18:31;;;;;;;13.43;5.23;;;11.90;86.40;;;;;;5054019;28;20487;-83
2022/03/14 09:20:58;;;;;;;12.77;6.40;;;12.00;83.90;;;;;;5054599;28;20455;-82
2022/03/14 09:23:25;;;;;;;9.30;5.70;;;11.90;81.20;;;;;;5055134;28;20459;-83
2022/03/14 09:25:52;;;;;;;9.30;5.20;;;12.10;83.60;;;;;;5054662;28;20455;-82
2022/03/14 09:28:21;;;;;;;10.43;5.80;;;12.20;82.10;;;;;;5053163;28;20483;-82
2022/03/14 09:30:47;;;;;;;13.03;6.03;;;12.20;79.10;;;;;;5054932;28;20823;-82
2022/03/14 09:33:14;;;;;;;9.30;4.70;;;12.10;78.90;;;;;;5056650;28;20558;-82
2022/03/14 09:35:41;;;;;;;10.50;5.40;;;12.10;77.40;;;;;;5055371;28;20462;-82
2022/03/14 09:38:08;;;;;;;13.27;5.37;;;11.90;76.20;;;;;;5053438;28;20864;-81
2022/03/14 09:40:35;;;;;;;8.70;4.60;;;11.90;75.40;;;;;;5053547;28;20455;-83
2022/03/14 09:43:02;;;;;;;13.87;5.10;;;11.80;72.10;;;;;;5053765;28;20499;-82
2022/03/14 09:45:32;;;;;;;7.90;4.53;;;11.80;74.40;;;;;;5053695;28;20458;-82
2022/03/14 09:48:01;;;;;;;10.17;5.40;;;11.90;74.60;;;;;;5053769;28;20940;-83
2022/03/14 09:50:32;;;;;;;8.47;4.87;;;12.10;73.60;;;;;;5053457;28;20447;-82
2022/03/14 09:52:59;;;;;;;15.20;6.63;;;12.10;70.00;;;;;;5053310;28;20471;-82
2022/03/14 09:55:27;;;;;;;7.77;4.30;;;12.40;72.10;;;;;;5053391;28;20509;-82
2022/03/14 09:57:55;;;;;;;10.43;4.50;;;12.20;67.20;;;;;;5052960;28;20486;-82
2022/03/14 10:00:22;;;;;;;10.10;4.90;;;12.20;67.20;;;;;;5053137;28;20551;-82
2022/03/14 10:02:50;;;;;;;7.77;5.00;;;12.40;68.10;;;;;;5053101;28;20478;-82
2022/03/14 10:05:17;;;;;;;11.00;4.80;;;12.50;68.30;;;;;;5053667;28;20451;-82
2022/03/14 10:07:45;;;;;;;9.53;4.97;;;13.00;64.40;;;;;;5053072;28;20455;-83
2022/03/14 10:10:12;;;;;;;7.90;4.90;;;13.30;64.00;;;;;;5052583;28;20462;-83
2022/03/14 10:12:41;;;;;;;17.83;5.50;;;13.80;63.60;;;;;;5052936;28;20481;-81
2022/03/14 10:15:09;;;;;;;10.10;5.17;;;14.00;57.00;;;;;;5053140;28;20453;-83
2022/03/14 10:17:36;;;;;;;7.77;4.77;;;13.90;54.50;;;;;;5052195;28;20485;-82
2022/03/14 10:20:07;;;;;;;7.53;5.00;;;13.30;55.20;;;;;;5052498;28;20548;-82
2022/03/14 10:22:35;;;;;;;11.87;5.20;;;12.50;55.60;;;;;;5052544;28;20469;-82
2022/03/14 10:25:09;;;;;;;10.70;7.73;;;12.20;60.50;;;;;;5055688;28;20455;-83
2022/03/14 10:27:37;;;;;;;7.87;5.17;;;12.30;63.10;;;;;;5052157;28;20447;-81
2022/03/14 10:30:05;;;;;;;10.90;5.90;;;12.20;63.00;;;;;;5052759;28;20872;-82
2022/03/14 10:32:33;;;;;;;9.70;5.77;;;12.20;62.50;;;;;;5052339;28;20479;-81
2022/03/14 10:35:01;;;;;;;13.60;6.60;;;12.40;61.70;;;;;;5052339;28;20462;-82
2022/03/14 10:37:29;;;;;;;8.93;5.50;;;12.10;60.90;;;;;;5053002;28;20554;-81
2022/03/14 10:40:04;;;;;;;10.33;6.00;;;12.10;61.40;;;;;;5052594;28;20460;-81
2022/03/14 10:42:39;;;;;;;11.00;5.70;;;12.40;61.00;;;;;;5052699;28;20475;-82
2022/03/14 10:45:11;;;;;;;10.77;5.80;;;12.60;59.90;;;;;;5052372;28;20504;-83
2022/03/14 10:47:38;;;;;;;9.70;5.43;;;12.80;59.60;;;;;;5052508;28;20478;-82
2022/03/14 10:50:05;;;;;;;7.63;4.40;;;13.00;57.30;;;;;;5052142;28;20827;-82
2022/03/14 10:52:33;;;;;;;10.30;4.73;;;13.00;56.10;;;;;;5052906;28;20482;-85
2022/03/14 10:55:00;;;;;;;9.80;4.13;;;13.00;56.70;;;;;;5052401;28;20460;-83
2022/03/14 10:57:30;;;;;;;9.83;4.40;;;12.90;55.00;;;;;;5052548;28;20838;-82
2022/03/14 10:59:58;;;;;;;8.40;4.07;;;12.80;55.20;;;;;;5052157;28;20852;-82
2022/03/14 11:02:27;;;;;;;12.00;4.30;;;12.60;54.60;;;;;;5052693;28;20475;-82
2022/03/14 11:04:56;;;;;;;7.10;4.10;;;12.60;55.00;;;;;;5052174;28;20454;-82
2022/03/14 11:07:26;;;;;;;8.57;4.10;;;12.80;53.50;;;;;;5053092;28;20451;-82
2022/03/14 11:09:56;;;;;;;10.70;4.10;;;12.80;54.60;;;;;;5052347;28;20443;-83
2022/03/14 11:12:25;;;;;;;6.53;4.13;;;12.80;54.00;;;;;;5052079;28;21045;-82
2022/03/14 11:14:53;;;;;;;9.57;4.60;;;12.90;52.80;;;;;;5052228;28;20452;-83
2022/03/14 11:17:22;;;;;;;7.43;3.20;;;12.90;52.20;;;;;;5052207;28;20456;-83
2022/03/14 11:19:49;;;;;;;8.87;3.67;;;12.90;48.30;;;;;;5052355;28;20831;-81
2022/03/14 11:22:18;;;;;;;7.07;3.10;;;12.80;47.90;;;;;;5053276;28;20467;-82
2022/03/14 11:24:47;;;;;;;7.30;3.10;;;12.70;46.40;;;;;;5052772;28;20842;-82
2022/03/14 11:27:22;;;;;;;8.00;3.00;;;12.60;47.90;;;;;;5052447;28;20451;-82
2022/03/14 11:29:50;;;;;;;7.20;2.83;;;12.60;48.30;;;;;;5053880;28;20474;-82
2022/03/14 11:32:17;;;;;;;9.00;3.20;;;12.90;50.30;;;;;;5056292;28;20497;-82
2022/03/14 11:34:46;;;;;;;8.37;3.27;;;13.00;49.50;;;;;;5056185;28;20466;-82
2022/03/14 11:37:13;;;;;;;10.33;2.90;;;13.00;46.70;;;;;;5056078;28;20971;-82
2022/03/14 11:39:40;;;;;;;5.57;2.77;;;12.90;46.60;;;;;;5056129;28;20479;-81
2022/03/14 11:42:07;;;;;;;11.17;3.50;;;12.90;46.60;;;;;;5056004;28;21058;-83
2022/03/14 11:44:37;;;;;;;6.73;2.40;;;13.00;46.70;;;;;;5056164;28;20462;-83
2022/03/14 11:47:05;;;;;;;6.17;2.77;;;13.20;46.90;;;;;;5055931;28;20462;-82
2022/03/14 11:49:32;;;;;;;7.13;2.47;;;13.10;46.10;;;;;;5055564;28;20455;-82
2022/03/14 11:52:18;;;;;;;5.30;2.50;;;13.10;45.70;;;;;;5054948;28;20507;-81
2022/03/14 11:54:48;;;;;;;8.83;3.37;;;13.10;44.90;;;;;;5056793;28;20994;-83
2022/03/14 11:57:34;;;;;;;12.23;3.27;;;13.20;46.90;;;;;;5057335;28;20528;-82
2022/03/14 12:00:33;;;;;;;7.90;3.83;;;13.00;45.50;;;;;;5057329;28;20503;-82
2022/03/14 12:03:02;;;;;;;9.53;2.80;;;13.30;47.00;;;;;;5055672;28;20475;-83
2022/03/14 12:05:50;;;;;;;10.40;3.00;;;13.30;45.40;;;;;;5055534;28;20508;-81
2022/03/14 12:09:00;;;;;;;6.83;3.00;;;13.20;46.30;;;;;;5057012;28;20455;-82
2022/03/14 12:11:37;;;;;;;8.63;3.10;;;13.10;46.80;;;;;;5057533;28;20470;-83
2022/03/14 12:14:04;;;;;;;5.67;3.23;;;12.80;45.20;;;;;;5058546;28;20462;-83
2022/03/14 12:16:39;;;;;;;6.73;3.13;;;12.70;46.90;;;;;;5056140;28;20825;-82
2022/03/14 12:19:28;;;;;;;7.60;3.80;;;12.80;46.50;;;;;;5055411;28;21061;-83
2022/03/14 12:21:55;;;;;;;5.63;2.97;;;12.70;47.30;;;;;;5055682;28;20474;-83
2022/03/14 12:24:42;;;;;;;9.50;3.87;;;12.70;46.40;;;;;;5056304;28;20451;-82
2022/03/14 12:27:14;;;;;;;8.50;4.30;;;12.80;46.50;;;;;;5037211;28;20456;-83
2022/03/14 12:29:41;;;;;;;7.90;3.53;;;12.90;46.50;;;;;;5044197;28;20470;-83
2022/03/14 12:32:29;;;;;;;5.83;2.77;;;13.00;42.60;;;;;;5084454;22;20501;-81
2022/03/14 12:35:06;;;;;;;12.70;3.93;;;13.20;44.00;;;;;;5079011;28;20656;-81
2022/03/14 12:37:42;;;;;;;8.00;3.23;;;13.50;45.40;;;;;;5078533;28;20434;-81